Sweetser, Indiana
Current Conditions -  °F | °C
As of 11:55 AM on Saturday 22 Nov 2014 (Local Time) from KMZZ Reporting Station
Overcast Overcast  
Wind Chill: 34°   Ceiling: 4400
Heat Index: 42°   Visibility: 10mi
Dew Point: 37°   Wind: 18mph
Humidity: 82%   Direction: 200°SSW
Pressure: 30.1"   Gusts: 23mph
Location:  40.57°N, 85.77°W
Report Text: KMZZ 221655Z AUTO 20016G20KT 10SM BKN044 OVC055 06/03 A3010 RMK AO2 T00580029
Loading
Personal Weather Stations






























Interactive Weather Map New forecast layout! Learn more

10-Day Weather Forecast

Advertisements
Track Severe Weather on mobile